Terminal Aerodrome Forecast
Issued by NWS Sterling, VA

Current Version | Previous Version | Graphics & Text | Print | Product List | Glossary Off
Versions: 1 2 3 4 5 6 7 8 9 10 11 12 13 14

890
FTUS41 KLWX 011728
TAFMRB
TAF
KMRB 011728Z 0118/0218 22016G24KT P6SM SHRA BKN045
      TEMPO 0118/0119 VRB50KT 1 1/2SM SHRA BKN015
     FM012100 22016G24KT P6SM OVC120
     FM020000 23016G24KT P6SM SHRA BKN100
     FM020300 27017G27KT P6SM BKN045
     FM020500 27022G35KT P6SM SCT045
     FM021500 30019G27KT P6SM SCT045
     FM021600 30017G24KT P6SM FEW250=

USA.gov is the U.S. government's official web portal to all federal, state and local government web resources and services.